sensor_id;sensor_type;location;lat;lon;timestamp;P1;durP1;ratioP1;P2;durP2;ratioP2
75400;SDS011;63974;47.538;18.972;2023-06-22T00:02:15;19.80;;;14.10;;
75400;SDS011;63974;47.538;18.972;2023-06-22T00:05:17;20.13;;;14.35;;
75400;SDS011;63974;47.538;18.972;2023-06-22T00:08:20;18.43;;;13.87;;
75400;SDS011;63974;47.538;18.972;2023-06-22T00:11:23;22.83;;;14.27;;
75400;SDS011;63974;47.538;18.972;2023-06-22T00:14:26;19.70;;;14.15;;
75400;SDS011;63974;47.538;18.972;2023-06-22T00:17:29;22.02;;;14.60;;
75400;SDS011;63974;47.538;18.972;2023-06-22T00:20:32;23.05;;;14.50;;
75400;SDS011;63974;47.538;18.972;2023-06-22T00:23:36;21.57;;;13.47;;
75400;SDS011;63974;47.538;18.972;2023-06-22T00:26:39;20.00;;;14.52;;
75400;SDS011;63974;47.538;18.972;2023-06-22T00:29:44;21.73;;;14.82;;
75400;SDS011;63974;47.538;18.972;2023-06-22T00:32:47;20.00;;;15.10;;
75400;SDS011;63974;47.538;18.972;2023-06-22T00:35:50;19.80;;;14.73;;
75400;SDS011;63974;47.538;18.972;2023-06-22T00:38:55;22.13;;;15.00;;
75400;SDS011;63974;47.538;18.972;2023-06-22T00:41:58;22.98;;;15.30;;
75400;SDS011;63974;47.538;18.972;2023-06-22T00:45:01;18.48;;;14.63;;
75400;SDS011;63974;47.538;18.972;2023-06-22T00:48:04;22.80;;;15.50;;
75400;SDS011;63974;47.538;18.972;2023-06-22T00:51:08;20.85;;;14.90;;
75400;SDS011;63974;47.538;18.972;2023-06-22T00:54:13;23.80;;;15.63;;
75400;SDS011;63974;47.538;18.972;2023-06-22T00:57:17;24.42;;;16.23;;
75400;SDS011;63974;47.538;18.972;2023-06-22T01:00:22;21.45;;;15.10;;
75400;SDS011;63974;47.538;18.972;2023-06-22T01:03:28;23.73;;;14.85;;
75400;SDS011;63974;47.538;18.972;2023-06-22T01:06:32;22.13;;;14.68;;
75400;SDS011;63974;47.538;18.972;2023-06-22T01:09:54;22.43;;;16.20;;
75400;SDS011;63974;47.538;18.972;2023-06-22T01:13:07;25.10;;;15.63;;
75400;SDS011;63974;47.538;18.972;2023-06-22T01:16:30;21.70;;;15.40;;
75400;SDS011;63974;47.538;18.972;2023-06-22T01:19:37;26.63;;;16.50;;
75400;SDS011;63974;47.538;18.972;2023-06-22T01:29:22;23.25;;;16.67;;
75400;SDS011;63974;47.538;18.972;2023-06-22T01:32:31;25.02;;;17.70;;
75400;SDS011;63974;47.538;18.972;2023-06-22T01:35:37;26.65;;;17.80;;
75400;SDS011;63974;47.538;18.972;2023-06-22T01:38:41;24.20;;;16.40;;
75400;SDS011;63974;47.538;18.972;2023-06-22T01:41:47;26.87;;;15.47;;
75400;SDS011;63974;47.538;18.972;2023-06-22T01:44:51;26.30;;;15.52;;
75400;SDS011;63974;47.538;18.972;2023-06-22T01:47:55;21.10;;;15.80;;
75400;SDS011;63974;47.538;18.972;2023-06-22T01:50:59;22.13;;;15.45;;
75400;SDS011;63974;47.538;18.972;2023-06-22T01:54:02;22.50;;;14.80;;
75400;SDS011;63974;47.538;18.972;2023-06-22T01:57:05;21.47;;;14.10;;
75400;SDS011;63974;47.538;18.972;2023-06-22T02:00:12;19.50;;;14.05;;
75400;SDS011;63974;47.538;18.972;2023-06-22T02:03:26;22.33;;;13.43;;
75400;SDS011;63974;47.538;18.972;2023-06-22T02:06:37;19.48;;;13.57;;
75400;SDS011;63974;47.538;18.972;2023-06-22T02:09:46;17.13;;;12.90;;
75400;SDS011;63974;47.538;18.972;2023-06-22T02:12:53;20.47;;;12.90;;
75400;SDS011;63974;47.538;18.972;2023-06-22T02:15:57;18.48;;;13.45;;
75400;SDS011;63974;47.538;18.972;2023-06-22T02:19:01;21.00;;;12.85;;
75400;SDS011;63974;47.538;18.972;2023-06-22T02:22:08;17.83;;;13.15;;
75400;SDS011;63974;47.538;18.972;2023-06-22T02:25:11;16.67;;;13.00;;
75400;SDS011;63974;47.538;18.972;2023-06-22T02:28:14;18.87;;;13.23;;
75400;SDS011;63974;47.538;18.972;2023-06-22T02:31:17;17.65;;;12.88;;
75400;SDS011;63974;47.538;18.972;2023-06-22T02:34:21;17.17;;;13.07;;
75400;SDS011;63974;47.538;18.972;2023-06-22T02:37:26;19.55;;;13.45;;
75400;SDS011;63974;47.538;18.972;2023-06-22T02:40:32;19.27;;;13.45;;
75400;SDS011;63974;47.538;18.972;2023-06-22T02:43:34;19.17;;;13.17;;
75400;SDS011;63974;47.538;18.972;2023-06-22T02:46:37;16.33;;;12.65;;
75400;SDS011;63974;47.538;18.972;2023-06-22T02:49:40;19.92;;;13.48;;
75400;SDS011;63974;47.538;18.972;2023-06-22T02:52:44;24.77;;;13.77;;
75400;SDS011;63974;47.538;18.972;2023-06-22T02:55:47;19.70;;;13.43;;
75400;SDS011;63974;47.538;18.972;2023-06-22T02:58:49;19.73;;;13.27;;
75400;SDS011;63974;47.538;18.972;2023-06-22T03:01:52;18.58;;;12.98;;
75400;SDS011;63974;47.538;18.972;2023-06-22T03:05:00;20.85;;;13.63;;
75400;SDS011;63974;47.538;18.972;2023-06-22T03:08:04;19.95;;;13.20;;
75400;SDS011;63974;47.538;18.972;2023-06-22T03:11:08;20.83;;;13.30;;
75400;SDS011;63974;47.538;18.972;2023-06-22T03:14:11;26.03;;;14.43;;
75400;SDS011;63974;47.538;18.972;2023-06-22T03:17:14;18.88;;;12.55;;
75400;SDS011;63974;47.538;18.972;2023-06-22T03:20:17;22.45;;;15.02;;
75400;SDS011;63974;47.538;18.972;2023-06-22T03:23:21;21.50;;;15.38;;
75400;SDS011;63974;47.538;18.972;2023-06-22T03:26:24;22.52;;;15.32;;
75400;SDS011;63974;47.538;18.972;2023-06-22T03:29:29;19.97;;;14.83;;
75400;SDS011;63974;47.538;18.972;2023-06-22T03:32:32;27.77;;;16.77;;
75400;SDS011;63974;47.538;18.972;2023-06-22T03:35:35;24.58;;;15.48;;
75400;SDS011;63974;47.538;18.972;2023-06-22T03:38:38;19.98;;;14.32;;
75400;SDS011;63974;47.538;18.972;2023-06-22T03:41:44;22.38;;;15.45;;
75400;SDS011;63974;47.538;18.972;2023-06-22T03:44:47;21.33;;;14.90;;
75400;SDS011;63974;47.538;18.972;2023-06-22T03:47:50;22.05;;;15.90;;
75400;SDS011;63974;47.538;18.972;2023-06-22T03:50:53;22.05;;;15.32;;
75400;SDS011;63974;47.538;18.972;2023-06-22T03:53:55;24.95;;;15.95;;
75400;SDS011;63974;47.538;18.972;2023-06-22T03:56:58;25.17;;;16.00;;
75400;SDS011;63974;47.538;18.972;2023-06-22T04:00:01;20.90;;;14.27;;
75400;SDS011;63974;47.538;18.972;2023-06-22T04:03:13;20.73;;;14.57;;
75400;SDS011;63974;47.538;18.972;2023-06-22T04:06:17;22.25;;;15.90;;
75400;SDS011;63974;47.538;18.972;2023-06-22T04:09:20;22.48;;;14.40;;
75400;SDS011;63974;47.538;18.972;2023-06-22T04:12:24;23.98;;;16.15;;
75400;SDS011;63974;47.538;18.972;2023-06-22T04:15:28;19.80;;;14.57;;
75400;SDS011;63974;47.538;18.972;2023-06-22T04:18:31;23.05;;;15.63;;
75400;SDS011;63974;47.538;18.972;2023-06-22T04:21:33;21.65;;;15.30;;
75400;SDS011;63974;47.538;18.972;2023-06-22T04:24:36;22.70;;;14.77;;
75400;SDS011;63974;47.538;18.972;2023-06-22T04:27:39;21.27;;;16.15;;
75400;SDS011;63974;47.538;18.972;2023-06-22T04:42:17;22.17;;;15.30;;
75400;SDS011;63974;47.538;18.972;2023-06-22T04:45:20;18.10;;;14.52;;
75400;SDS011;63974;47.538;18.972;2023-06-22T04:48:23;23.35;;;13.90;;
75400;SDS011;63974;47.538;18.972;2023-06-22T04:51:26;23.42;;;14.18;;
75400;SDS011;63974;47.538;18.972;2023-06-22T04:54:33;21.30;;;14.23;;
75400;SDS011;63974;47.538;18.972;2023-06-22T04:57:37;17.60;;;13.47;;
75400;SDS011;63974;47.538;18.972;2023-06-22T05:00:41;18.42;;;13.48;;
75400;SDS011;63974;47.538;18.972;2023-06-22T05:03:47;17.60;;;13.95;;
75400;SDS011;63974;47.538;18.972;2023-06-22T05:06:50;19.60;;;13.55;;
75400;SDS011;63974;47.538;18.972;2023-06-22T05:09:53;19.07;;;13.77;;
75400;SDS011;63974;47.538;18.972;2023-06-22T05:12:56;19.23;;;14.50;;
75400;SDS011;63974;47.538;18.972;2023-06-22T05:15:59;22.80;;;13.50;;
75400;SDS011;63974;47.538;18.972;2023-06-22T05:19:05;17.08;;;12.50;;
75400;SDS011;63974;47.538;18.972;2023-06-22T05:22:08;19.15;;;13.00;;
75400;SDS011;63974;47.538;18.972;2023-06-22T05:25:11;17.00;;;13.90;;
75400;SDS011;63974;47.538;18.972;2023-06-22T05:28:14;17.37;;;14.10;;
75400;SDS011;63974;47.538;18.972;2023-06-22T05:31:17;17.88;;;13.40;;
75400;SDS011;63974;47.538;18.972;2023-06-22T05:34:22;18.45;;;15.10;;
75400;SDS011;63974;47.538;18.972;2023-06-22T05:37:25;17.35;;;13.65;;
75400;SDS011;63974;47.538;18.972;2023-06-22T05:40:28;19.30;;;14.20;;
75400;SDS011;63974;47.538;18.972;2023-06-22T05:43:31;20.93;;;14.17;;
75400;SDS011;63974;47.538;18.972;2023-06-22T05:46:34;17.85;;;14.73;;
75400;SDS011;63974;47.538;18.972;2023-06-22T05:49:42;20.30;;;14.40;;
75400;SDS011;63974;47.538;18.972;2023-06-22T05:52:44;21.58;;;14.93;;
75400;SDS011;63974;47.538;18.972;2023-06-22T05:55:47;17.17;;;14.13;;
75400;SDS011;63974;47.538;18.972;2023-06-22T05:58:50;17.50;;;14.87;;
75400;SDS011;63974;47.538;18.972;2023-06-22T06:01:53;17.70;;;14.10;;
75400;SDS011;63974;47.538;18.972;2023-06-22T06:04:56;17.70;;;15.23;;
75400;SDS011;63974;47.538;18.972;2023-06-22T06:08:02;24.05;;;15.85;;
75400;SDS011;63974;47.538;18.972;2023-06-22T06:11:09;18.42;;;15.32;;
75400;SDS011;63974;47.538;18.972;2023-06-22T06:14:12;18.97;;;15.33;;
75400;SDS011;63974;47.538;18.972;2023-06-22T06:17:15;18.80;;;15.05;;
75400;SDS011;63974;47.538;18.972;2023-06-22T06:20:19;19.90;;;15.38;;
75400;SDS011;63974;47.538;18.972;2023-06-22T06:23:23;21.20;;;15.52;;
75400;SDS011;63974;47.538;18.972;2023-06-22T06:26:26;19.95;;;15.23;;
75400;SDS011;63974;47.538;18.972;2023-06-22T06:29:35;18.67;;;15.67;;
75400;SDS011;63974;47.538;18.972;2023-06-22T06:32:38;18.88;;;15.73;;
75400;SDS011;63974;47.538;18.972;2023-06-22T06:35:41;17.60;;;14.20;;
75400;SDS011;63974;47.538;18.972;2023-06-22T06:38:44;22.85;;;15.68;;
75400;SDS011;63974;47.538;18.972;2023-06-22T06:41:49;18.07;;;15.00;;
75400;SDS011;63974;47.538;18.972;2023-06-22T06:44:53;19.30;;;15.77;;
75400;SDS011;63974;47.538;18.972;2023-06-22T06:47:57;19.58;;;16.27;;
75400;SDS011;63974;47.538;18.972;2023-06-22T06:51:00;19.25;;;15.95;;
75400;SDS011;63974;47.538;18.972;2023-06-22T06:54:03;19.77;;;17.02;;
75400;SDS011;63974;47.538;18.972;2023-06-22T06:57:05;23.05;;;15.68;;
75400;SDS011;63974;47.538;18.972;2023-06-22T07:00:09;18.37;;;16.23;;
75400;SDS011;63974;47.538;18.972;2023-06-22T07:03:15;20.73;;;17.60;;
75400;SDS011;63974;47.538;18.972;2023-06-22T07:06:18;23.35;;;17.75;;
75400;SDS011;63974;47.538;18.972;2023-06-22T07:09:21;21.65;;;18.67;;
75400;SDS011;63974;47.538;18.972;2023-06-22T07:12:24;25.53;;;19.97;;
75400;SDS011;63974;47.538;18.972;2023-06-22T07:15:26;26.53;;;19.73;;
75400;SDS011;63974;47.538;18.972;2023-06-22T07:18:29;23.48;;;18.67;;
75400;SDS011;63974;47.538;18.972;2023-06-22T07:21:32;22.17;;;19.45;;
75400;SDS011;63974;47.538;18.972;2023-06-22T07:24:35;23.25;;;19.73;;
75400;SDS011;63974;47.538;18.972;2023-06-22T07:27:39;22.05;;;19.17;;
75400;SDS011;63974;47.538;18.972;2023-06-22T07:30:46;23.87;;;18.97;;
75400;SDS011;63974;47.538;18.972;2023-06-22T07:33:49;22.98;;;19.08;;
75400;SDS011;63974;47.538;18.972;2023-06-22T07:36:51;22.50;;;18.92;;
75400;SDS011;63974;47.538;18.972;2023-06-22T07:39:55;19.00;;;16.95;;
75400;SDS011;63974;47.538;18.972;2023-06-22T07:43:01;21.30;;;18.07;;
75400;SDS011;63974;47.538;18.972;2023-06-22T07:46:04;20.27;;;17.33;;
75400;SDS011;63974;47.538;18.972;2023-06-22T07:49:06;19.83;;;16.90;;
75400;SDS011;63974;47.538;18.972;2023-06-22T07:52:10;19.15;;;17.25;;
75400;SDS011;63974;47.538;18.972;2023-06-22T07:55:13;20.33;;;16.77;;
75400;SDS011;63974;47.538;18.972;2023-06-22T07:58:16;21.07;;;18.50;;
75400;SDS011;63974;47.538;18.972;2023-06-22T08:01:21;20.73;;;17.70;;
75400;SDS011;63974;47.538;18.972;2023-06-22T08:04:24;20.05;;;17.25;;
75400;SDS011;63974;47.538;18.972;2023-06-22T08:07:29;20.85;;;16.80;;
75400;SDS011;63974;47.538;18.972;2023-06-22T08:10:35;19.48;;;17.48;;
75400;SDS011;63974;47.538;18.972;2023-06-22T08:13:38;18.47;;;16.57;;
75400;SDS011;63974;47.538;18.972;2023-06-22T08:16:41;19.80;;;16.57;;
75400;SDS011;63974;47.538;18.972;2023-06-22T08:19:44;19.38;;;16.58;;
75400;SDS011;63974;47.538;18.972;2023-06-22T08:22:47;18.77;;;16.02;;
75400;SDS011;63974;47.538;18.972;2023-06-22T08:25:50;17.70;;;15.90;;
75400;SDS011;63974;47.538;18.972;2023-06-22T08:28:53;21.50;;;16.17;;
75400;SDS011;63974;47.538;18.972;2023-06-22T08:31:56;18.70;;;15.87;;
75400;SDS011;63974;47.538;18.972;2023-06-22T08:35:01;18.08;;;15.98;;
75400;SDS011;63974;47.538;18.972;2023-06-22T08:38:04;19.40;;;15.30;;
75400;SDS011;63974;47.538;18.972;2023-06-22T08:41:06;22.15;;;17.50;;
75400;SDS011;63974;47.538;18.972;2023-06-22T08:44:10;18.53;;;16.27;;
75400;SDS011;63974;47.538;18.972;2023-06-22T08:47:13;20.83;;;16.67;;
75400;SDS011;63974;47.538;18.972;2023-06-22T08:50:15;17.92;;;15.98;;
75400;SDS011;63974;47.538;18.972;2023-06-22T08:53:18;17.52;;;15.55;;
75400;SDS011;63974;47.538;18.972;2023-06-22T08:56:21;18.10;;;15.88;;
75400;SDS011;63974;47.538;18.972;2023-06-22T08:59:24;18.13;;;16.07;;
75400;SDS011;63974;47.538;18.972;2023-06-22T09:02:26;18.67;;;16.77;;
75400;SDS011;63974;47.538;18.972;2023-06-22T09:05:33;17.05;;;15.18;;
75400;SDS011;63974;47.538;18.972;2023-06-22T09:08:36;16.48;;;14.80;;
75400;SDS011;63974;47.538;18.972;2023-06-22T09:11:39;16.95;;;15.30;;
75400;SDS011;63974;47.538;18.972;2023-06-22T09:14:41;16.97;;;15.17;;
75400;SDS011;63974;47.538;18.972;2023-06-22T09:17:44;18.20;;;16.30;;
75400;SDS011;63974;47.538;18.972;2023-06-22T09:20:49;17.63;;;15.90;;
75400;SDS011;63974;47.538;18.972;2023-06-22T09:23:52;17.63;;;15.73;;
75400;SDS011;63974;47.538;18.972;2023-06-22T09:26:55;19.40;;;16.85;;
75400;SDS011;63974;47.538;18.972;2023-06-22T09:29:58;18.10;;;14.87;;
75400;SDS011;63974;47.538;18.972;2023-06-22T09:33:00;17.17;;;15.00;;
75400;SDS011;63974;47.538;18.972;2023-06-22T09:36:05;17.30;;;15.50;;
75400;SDS011;63974;47.538;18.972;2023-06-22T09:39:09;16.42;;;14.80;;
75400;SDS011;63974;47.538;18.972;2023-06-22T09:42:12;17.13;;;15.30;;
75400;SDS011;63974;47.538;18.972;2023-06-22T09:45:15;16.67;;;14.87;;
75400;SDS011;63974;47.538;18.972;2023-06-22T09:48:18;16.53;;;14.83;;
75400;SDS011;63974;47.538;18.972;2023-06-22T09:51:21;17.88;;;16.02;;
75400;SDS011;63974;47.538;18.972;2023-06-22T09:54:26;15.75;;;14.07;;
75400;SDS011;63974;47.538;18.972;2023-06-22T09:57:29;17.15;;;15.20;;
75400;SDS011;63974;47.538;18.972;2023-06-22T10:00:32;16.60;;;14.90;;
75400;SDS011;63974;47.538;18.972;2023-06-22T10:03:35;17.27;;;15.57;;
75400;SDS011;63974;47.538;18.972;2023-06-22T10:06:38;17.42;;;15.80;;
75400;SDS011;63974;47.538;18.972;2023-06-22T10:09:43;14.93;;;13.40;;
75400;SDS011;63974;47.538;18.972;2023-06-22T10:12:46;17.00;;;15.27;;
75400;SDS011;63974;47.538;18.972;2023-06-22T10:15:56;15.03;;;13.53;;
75400;SDS011;63974;47.538;18.972;2023-06-22T10:18:59;18.03;;;15.03;;
75400;SDS011;63974;47.538;18.972;2023-06-22T10:22:03;16.33;;;14.60;;
75400;SDS011;63974;47.538;18.972;2023-06-22T10:25:07;15.45;;;13.85;;
75400;SDS011;63974;47.538;18.972;2023-06-22T10:28:11;15.10;;;13.60;;
75400;SDS011;63974;47.538;18.972;2023-06-22T10:31:14;18.40;;;16.50;;
75400;SDS011;63974;47.538;18.972;2023-06-22T10:34:19;20.97;;;16.40;;
75400;SDS011;63974;47.538;18.972;2023-06-22T10:37:21;18.30;;;16.40;;
75400;SDS011;63974;47.538;18.972;2023-06-22T10:40:26;17.25;;;15.35;;
75400;SDS011;63974;47.538;18.972;2023-06-22T10:43:29;17.92;;;16.13;;
75400;SDS011;63974;47.538;18.972;2023-06-22T10:46:31;16.73;;;14.70;;
75400;SDS011;63974;47.538;18.972;2023-06-22T10:49:34;16.43;;;14.53;;
75400;SDS011;63974;47.538;18.972;2023-06-22T10:52:38;20.15;;;14.98;;
75400;SDS011;63974;47.538;18.972;2023-06-22T10:55:42;18.98;;;14.90;;
75400;SDS011;63974;47.538;18.972;2023-06-22T10:58:58;15.73;;;13.38;;
75400;SDS011;63974;47.538;18.972;2023-06-22T11:02:01;15.80;;;13.77;;
75400;SDS011;63974;47.538;18.972;2023-06-22T11:05:05;15.17;;;13.53;;
75400;SDS011;63974;47.538;18.972;2023-06-22T11:08:08;19.05;;;13.63;;
75400;SDS011;63974;47.538;18.972;2023-06-22T11:11:11;15.10;;;13.50;;
75400;SDS011;63974;47.538;18.972;2023-06-22T11:14:14;15.50;;;13.88;;
75400;SDS011;63974;47.538;18.972;2023-06-22T11:17:17;14.97;;;13.47;;
75400;SDS011;63974;47.538;18.972;2023-06-22T11:20:20;15.00;;;12.30;;
75400;SDS011;63974;47.538;18.972;2023-06-22T11:23:23;15.55;;;13.93;;
75400;SDS011;63974;47.538;18.972;2023-06-22T11:26:28;16.17;;;13.45;;
75400;SDS011;63974;47.538;18.972;2023-06-22T11:29:31;16.05;;;12.90;;
75400;SDS011;63974;47.538;18.972;2023-06-22T11:32:39;15.73;;;13.47;;
75400;SDS011;63974;47.538;18.972;2023-06-22T11:35:42;14.90;;;12.87;;
75400;SDS011;63974;47.538;18.972;2023-06-22T11:38:45;14.32;;;12.18;;
75400;SDS011;63974;47.538;18.972;2023-06-22T11:41:48;12.77;;;11.55;;
75400;SDS011;63974;47.538;18.972;2023-06-22T11:44:51;13.43;;;11.68;;
75400;SDS011;63974;47.538;18.972;2023-06-22T11:47:54;12.93;;;11.20;;
75400;SDS011;63974;47.538;18.972;2023-06-22T11:50:57;12.43;;;10.87;;
75400;SDS011;63974;47.538;18.972;2023-06-22T11:54:01;12.80;;;11.02;;
75400;SDS011;63974;47.538;18.972;2023-06-22T11:57:04;12.25;;;10.65;;
75400;SDS011;63974;47.538;18.972;2023-06-22T12:00:08;13.23;;;10.90;;
75400;SDS011;63974;47.538;18.972;2023-06-22T12:03:19;14.57;;;11.87;;
75400;SDS011;63974;47.538;18.972;2023-06-22T12:06:24;12.77;;;11.50;;
75400;SDS011;63974;47.538;18.972;2023-06-22T12:09:27;11.75;;;10.55;;
75400;SDS011;63974;47.538;18.972;2023-06-22T12:12:30;12.70;;;10.85;;
75400;SDS011;63974;47.538;18.972;2023-06-22T12:15:32;12.65;;;10.75;;
75400;SDS011;63974;47.538;18.972;2023-06-22T12:18:35;11.97;;;10.37;;
75400;SDS011;63974;47.538;18.972;2023-06-22T12:21:38;11.77;;;10.57;;
75400;SDS011;63974;47.538;18.972;2023-06-22T12:24:43;15.20;;;12.00;;
75400;SDS011;63974;47.538;18.972;2023-06-22T12:27:45;13.15;;;11.82;;
75400;SDS011;63974;47.538;18.972;2023-06-22T12:30:48;12.10;;;10.90;;
75400;SDS011;63974;47.538;18.972;2023-06-22T12:33:51;13.77;;;11.13;;
75400;SDS011;63974;47.538;18.972;2023-06-22T12:36:54;15.03;;;12.13;;
75400;SDS011;63974;47.538;18.972;2023-06-22T12:39:57;15.05;;;12.15;;
75400;SDS011;63974;47.538;18.972;2023-06-22T12:43:00;14.55;;;11.55;;
75400;SDS011;63974;47.538;18.972;2023-06-22T12:46:04;14.73;;;11.18;;
75400;SDS011;63974;47.538;18.972;2023-06-22T12:49:07;17.30;;;11.00;;
75400;SDS011;63974;47.538;18.972;2023-06-22T12:52:09;13.07;;;11.77;;
75400;SDS011;63974;47.538;18.972;2023-06-22T12:55:13;14.55;;;11.65;;
75400;SDS011;63974;47.538;18.972;2023-06-22T12:58:16;14.10;;;11.52;;
75400;SDS011;63974;47.538;18.972;2023-06-22T13:01:19;13.00;;;11.77;;
75400;SDS011;63974;47.538;18.972;2023-06-22T13:04:22;13.47;;;12.10;;
75400;SDS011;63974;47.538;18.972;2023-06-22T13:07:25;13.53;;;11.73;;
75400;SDS011;63974;47.538;18.972;2023-06-22T13:10:28;14.93;;;13.50;;
75400;SDS011;63974;47.538;18.972;2023-06-22T13:13:31;12.77;;;11.48;;
75400;SDS011;63974;47.538;18.972;2023-06-22T13:16:36;13.25;;;12.10;;
75400;SDS011;63974;47.538;18.972;2023-06-22T13:19:39;15.67;;;12.27;;
75400;SDS011;63974;47.538;18.972;2023-06-22T13:22:42;12.90;;;11.60;;
75400;SDS011;63974;47.538;18.972;2023-06-22T13:25:46;13.15;;;11.40;;
75400;SDS011;63974;47.538;18.972;2023-06-22T13:28:49;13.38;;;11.05;;
75400;SDS011;63974;47.538;18.972;2023-06-22T13:31:51;13.93;;;11.77;;
75400;SDS011;63974;47.538;18.972;2023-06-22T13:34:54;18.20;;;12.10;;
75400;SDS011;63974;47.538;18.972;2023-06-22T13:37:57;14.40;;;12.43;;
75400;SDS011;63974;47.538;18.972;2023-06-22T13:41:00;15.55;;;12.45;;
75400;SDS011;63974;47.538;18.972;2023-06-22T13:44:03;13.77;;;12.23;;
75400;SDS011;63974;47.538;18.972;2023-06-22T13:47:06;14.63;;;11.77;;
75400;SDS011;63974;47.538;18.972;2023-06-22T13:50:09;14.27;;;11.83;;
75400;SDS011;63974;47.538;18.972;2023-06-22T13:53:12;12.97;;;11.83;;
75400;SDS011;63974;47.538;18.972;2023-06-22T13:56:15;12.18;;;10.98;;
75400;SDS011;63974;47.538;18.972;2023-06-22T13:59:18;12.63;;;11.07;;
75400;SDS011;63974;47.538;18.972;2023-06-22T14:02:20;13.00;;;11.35;;
75400;SDS011;63974;47.538;18.972;2023-06-22T14:05:23;14.33;;;12.63;;
75400;SDS011;63974;47.538;18.972;2023-06-22T14:08:26;13.47;;;12.27;;
75400;SDS011;63974;47.538;18.972;2023-06-22T14:11:32;13.30;;;11.23;;
75400;SDS011;63974;47.538;18.972;2023-06-22T14:14:34;11.65;;;10.55;;
75400;SDS011;63974;47.538;18.972;2023-06-22T14:17:37;12.75;;;11.48;;
75400;SDS011;63974;47.538;18.972;2023-06-22T14:20:40;12.10;;;10.67;;
75400;SDS011;63974;47.538;18.972;2023-06-22T14:23:43;12.50;;;10.90;;
75400;SDS011;63974;47.538;18.972;2023-06-22T14:26:51;12.43;;;11.07;;
75400;SDS011;63974;47.538;18.972;2023-06-22T14:29:54;12.32;;;11.02;;
75400;SDS011;63974;47.538;18.972;2023-06-22T14:32:57;13.85;;;11.82;;
75400;SDS011;63974;47.538;18.972;2023-06-22T14:35:59;12.23;;;10.40;;
75400;SDS011;63974;47.538;18.972;2023-06-22T14:39:02;15.50;;;12.00;;
75400;SDS011;63974;47.538;18.972;2023-06-22T14:42:05;14.85;;;11.48;;
75400;SDS011;63974;47.538;18.972;2023-06-22T14:45:08;14.35;;;12.07;;
75400;SDS011;63974;47.538;18.972;2023-06-22T14:48:11;13.73;;;12.48;;
75400;SDS011;63974;47.538;18.972;2023-06-22T14:51:14;16.87;;;13.87;;
75400;SDS011;63974;47.538;18.972;2023-06-22T14:54:19;14.20;;;11.97;;
75400;SDS011;63974;47.538;18.972;2023-06-22T14:57:21;14.88;;;13.38;;
75400;SDS011;63974;47.538;18.972;2023-06-22T15:00:25;15.40;;;13.43;;
75400;SDS011;63974;47.538;18.972;2023-06-22T15:03:28;14.10;;;12.68;;
75400;SDS011;63974;47.538;18.972;2023-06-22T15:06:34;15.00;;;13.57;;
75400;SDS011;63974;47.538;18.972;2023-06-22T15:09:36;14.37;;;12.43;;
75400;SDS011;63974;47.538;18.972;2023-06-22T15:12:43;16.80;;;12.80;;
75400;SDS011;63974;47.538;18.972;2023-06-22T15:15:46;14.15;;;12.25;;
75400;SDS011;63974;47.538;18.972;2023-06-22T15:18:49;15.40;;;13.27;;
75400;SDS011;63974;47.538;18.972;2023-06-22T15:21:52;14.77;;;13.50;;
75400;SDS011;63974;47.538;18.972;2023-06-22T15:24:55;15.73;;;14.10;;
75400;SDS011;63974;47.538;18.972;2023-06-22T15:28:00;15.20;;;13.57;;
75400;SDS011;63974;47.538;18.972;2023-06-22T15:31:03;14.45;;;13.02;;
75400;SDS011;63974;47.538;18.972;2023-06-22T15:34:06;13.68;;;12.27;;
75400;SDS011;63974;47.538;18.972;2023-06-22T15:37:09;14.27;;;12.90;;
75400;SDS011;63974;47.538;18.972;2023-06-22T15:40:12;14.60;;;12.37;;
75400;SDS011;63974;47.538;18.972;2023-06-22T15:43:15;14.80;;;13.30;;
75400;SDS011;63974;47.538;18.972;2023-06-22T15:46:18;16.25;;;13.95;;
75400;SDS011;63974;47.538;18.972;2023-06-22T15:49:20;15.60;;;14.00;;
75400;SDS011;63974;47.538;18.972;2023-06-22T15:52:23;15.27;;;12.20;;
75400;SDS011;63974;47.538;18.972;2023-06-22T15:55:26;15.17;;;12.37;;
75400;SDS011;63974;47.538;18.972;2023-06-22T15:58:29;16.35;;;12.48;;
75400;SDS011;63974;47.538;18.972;2023-06-22T16:01:32;14.80;;;13.35;;
75400;SDS011;63974;47.538;18.972;2023-06-22T16:04:35;14.02;;;12.73;;
75400;SDS011;63974;47.538;18.972;2023-06-22T16:07:38;14.27;;;12.00;;
75400;SDS011;63974;47.538;18.972;2023-06-22T16:10:41;14.90;;;13.23;;
75400;SDS011;63974;47.538;18.972;2023-06-22T16:13:44;15.50;;;12.95;;
75400;SDS011;63974;47.538;18.972;2023-06-22T16:16:48;14.75;;;13.35;;
75400;SDS011;63974;47.538;18.972;2023-06-22T16:19:51;14.85;;;13.30;;
75400;SDS011;63974;47.538;18.972;2023-06-22T16:22:56;14.13;;;12.43;;
75400;SDS011;63974;47.538;18.972;2023-06-22T16:25:59;13.33;;;12.07;;
75400;SDS011;63974;47.538;18.972;2023-06-22T16:29:02;15.73;;;12.48;;
75400;SDS011;63974;47.538;18.972;2023-06-22T16:32:05;14.00;;;12.70;;
75400;SDS011;63974;47.538;18.972;2023-06-22T16:35:09;17.25;;;13.93;;
75400;SDS011;63974;47.538;18.972;2023-06-22T16:38:12;13.87;;;12.40;;
75400;SDS011;63974;47.538;18.972;2023-06-22T16:41:15;15.63;;;12.53;;
75400;SDS011;63974;47.538;18.972;2023-06-22T16:44:18;14.60;;;13.00;;
75400;SDS011;63974;47.538;18.972;2023-06-22T16:47:21;15.40;;;12.20;;
75400;SDS011;63974;47.538;18.972;2023-06-22T16:50:24;14.15;;;12.65;;
75400;SDS011;63974;47.538;18.972;2023-06-22T16:53:28;13.67;;;12.30;;
75400;SDS011;63974;47.538;18.972;2023-06-22T16:56:31;15.83;;;12.63;;
75400;SDS011;63974;47.538;18.972;2023-06-22T16:59:35;18.13;;;14.13;;
75400;SDS011;63974;47.538;18.972;2023-06-22T17:02:43;16.98;;;12.43;;
75400;SDS011;63974;47.538;18.972;2023-06-22T17:05:52;14.27;;;12.77;;
75400;SDS011;63974;47.538;18.972;2023-06-22T17:09:03;14.37;;;12.90;;
75400;SDS011;63974;47.538;18.972;2023-06-22T17:12:07;15.70;;;14.07;;
75400;SDS011;63974;47.538;18.972;2023-06-22T17:15:10;18.80;;;13.13;;
75400;SDS011;63974;47.538;18.972;2023-06-22T17:18:14;15.60;;;13.40;;
75400;SDS011;63974;47.538;18.972;2023-06-22T17:21:21;15.57;;;13.88;;
75400;SDS011;63974;47.538;18.972;2023-06-22T17:24:25;17.60;;;13.73;;
75400;SDS011;63974;47.538;18.972;2023-06-22T17:27:28;15.97;;;14.03;;
75400;SDS011;63974;47.538;18.972;2023-06-22T17:30:31;18.52;;;14.07;;
75400;SDS011;63974;47.538;18.972;2023-06-22T17:33:35;15.77;;;13.75;;
75400;SDS011;63974;47.538;18.972;2023-06-22T17:36:45;16.55;;;13.77;;
75400;SDS011;63974;47.538;18.972;2023-06-22T17:39:52;17.07;;;13.53;;
75400;SDS011;63974;47.538;18.972;2023-06-22T17:43:04;18.73;;;14.03;;
75400;SDS011;63974;47.538;18.972;2023-06-22T17:46:08;16.83;;;14.15;;
75400;SDS011;63974;47.538;18.972;2023-06-22T17:49:11;18.38;;;13.48;;
75400;SDS011;63974;47.538;18.972;2023-06-22T17:52:17;18.08;;;13.88;;
75400;SDS011;63974;47.538;18.972;2023-06-22T17:55:21;17.93;;;13.50;;
75400;SDS011;63974;47.538;18.972;2023-06-22T17:58:24;21.03;;;14.37;;